Bird Town, Arkansas
Current Conditions -  °F | °C
As of 10:15 AM on Sunday 25 Jan 2015 (Local Time) from KCCA Reporting Station
Overcast Overcast  
Wind Chill: 55°   Ceiling: 4800
Heat Index: 55°   Visibility: 7mi
Dew Point: 39°   Wind: 12mph
Humidity: 54%   Direction: 300°WNW
Pressure: 29.73"   Gusts: 17mph
Location:  35.2739°N, 92.5381°W
Report Text: KCCA 251615Z AUTO 30010G15KT 7SM SCT040 BKN048 OVC060 13/04 A2973 RMK AO2
Loading
Personal Weather Stations






























Interactive Weather Map New forecast layout! Learn more

10-Day Weather Forecast

Advertisements
Track Severe Weather on mobile